Time;durP1;ratioP1;P1;durP2;ratioP2;P2;SDS_P1;SDS_P2;PMS_P1;PMS_P2;Temp;Humidity;BMP_temperature;BMP_pressure;BME280_temperature;BME280_humidity;BME280_pressure;Samples;Min_cycle;Max_cycle;Signal;HPM_P1;HPM_P2
2021/03/01 00:01:44;;;;;;;11.02;6.32;;;5.00;99.90;;;;;;5090481;28;20029;-47
2021/03/01 00:04:10;;;;;;;9.25;5.78;;;5.00;99.90;;;;;;5071808;28;21991;-47
2021/03/01 00:06:36;;;;;;;10.20;6.30;;;4.90;99.90;;;;;;5090505;28;20485;-47
2021/03/01 00:09:01;;;;;;;9.00;6.05;;;4.80;99.90;;;;;;5090371;28;20032;-46
2021/03/01 00:11:27;;;;;;;9.25;6.05;;;4.80;99.90;;;;;;5091478;28;20016;-45
2021/03/01 00:13:52;;;;;;;11.00;6.57;;;4.70;99.90;;;;;;5090011;28;20031;-45
2021/03/01 00:16:18;;;;;;;8.98;5.88;;;4.70;99.90;;;;;;5072908;28;20060;-45
2021/03/01 00:18:43;;;;;;;9.15;6.47;;;4.70;99.90;;;;;;5090585;28;20036;-45
2021/03/01 00:21:09;;;;;;;8.82;6.22;;;4.70;99.90;;;;;;5090216;28;20032;-45
2021/03/01 00:23:34;;;;;;;8.75;6.40;;;4.60;99.90;;;;;;5089990;28;20540;-45
2021/03/01 00:26:00;;;;;;;9.38;6.60;;;4.60;99.90;;;;;;5089983;28;20024;-44
2021/03/01 00:28:25;;;;;;;11.90;6.65;;;4.60;99.90;;;;;;5090404;28;20016;-45
2021/03/01 00:30:51;;;;;;;12.15;6.90;;;4.50;99.90;;;;;;5089973;28;20028;-45
2021/03/01 00:33:16;;;;;;;14.48;6.47;;;4.50;99.90;;;;;;5090262;28;20385;-44
2021/03/01 00:35:42;;;;;;;15.80;7.22;;;4.50;99.90;;;;;;5090061;28;20032;-45
2021/03/01 00:38:07;;;;;;;9.85;6.80;;;4.40;99.90;;;;;;5090048;28;20073;-46
2021/03/01 00:40:33;;;;;;;12.48;6.68;;;4.40;99.90;;;;;;5090403;28;20036;-46
2021/03/01 00:42:58;;;;;;;10.50;6.88;;;4.40;99.90;;;;;;5071792;28;20035;-47
2021/03/01 00:45:24;;;;;;;11.07;6.72;;;4.40;99.90;;;;;;5090165;28;20073;-45
2021/03/01 00:47:49;;;;;;;12.65;6.78;;;4.40;99.90;;;;;;5089893;28;20024;-45
2021/03/01 00:50:16;;;;;;;9.45;6.07;;;4.40;99.90;;;;;;5090443;28;20021;-46
2021/03/01 00:52:42;;;;;;;9.95;6.55;;;4.40;99.90;;;;;;5089830;28;20028;-44
2021/03/01 00:55:09;;;;;;;9.80;5.97;;;4.40;99.90;;;;;;5090218;28;20032;-45
2021/03/01 00:57:35;;;;;;;10.07;6.32;;;4.40;99.90;;;;;;5089558;28;20040;-44
2021/03/01 01:00:01;;;;;;;11.07;7.28;;;4.50;99.90;;;;;;5090062;28;20343;-45
2021/03/01 01:02:26;;;;;;;9.35;6.90;;;4.40;99.90;;;;;;5089993;28;20044;-46
2021/03/01 01:04:52;;;;;;;12.10;6.80;;;4.30;99.90;;;;;;5090285;28;20032;-47
2021/03/01 01:07:17;;;;;;;10.65;5.78;;;4.30;99.90;;;;;;5090158;28;20035;-45
2021/03/01 01:09:43;;;;;;;12.77;6.82;;;4.30;99.90;;;;;;5093564;28;20487;-44
2021/03/01 01:12:08;;;;;;;9.77;6.65;;;4.30;99.90;;;;;;5093580;28;20028;-45
2021/03/01 01:14:34;;;;;;;12.57;6.60;;;4.20;99.90;;;;;;5093146;28;20024;-50
2021/03/01 01:17:00;;;;;;;12.30;6.93;;;4.30;99.90;;;;;;5093290;28;20028;-46
2021/03/01 01:19:25;;;;;;;9.80;6.43;;;4.30;99.90;;;;;;5093692;28;20024;-44
2021/03/01 01:21:51;;;;;;;11.18;6.35;;;4.40;99.90;;;;;;5092963;28;20032;-46
2021/03/01 01:24:16;;;;;;;11.32;6.90;;;4.40;99.90;;;;;;5092953;28;20028;-45
2021/03/01 01:26:42;;;;;;;12.30;7.18;;;4.30;99.90;;;;;;5093198;28;20024;-45
2021/03/01 01:29:07;;;;;;;12.93;7.28;;;4.30;99.90;;;;;;5093384;28;20031;-46
2021/03/01 01:31:33;;;;;;;15.95;7.93;;;4.30;99.90;;;;;;5093052;28;20396;-47
2021/03/01 01:33:58;;;;;;;13.82;7.50;;;4.30;99.90;;;;;;5092991;28;20016;-44
2021/03/01 01:36:24;;;;;;;10.88;8.50;;;4.30;99.90;;;;;;5092653;28;20443;-46
2021/03/01 01:38:49;;;;;;;8.70;6.50;;;4.30;99.90;;;;;;5092936;28;20055;-48
2021/03/01 01:41:15;;;;;;;12.25;7.40;;;4.20;99.90;;;;;;5092521;28;20028;-47
2021/03/01 01:43:40;;;;;;;12.45;7.28;;;4.20;99.90;;;;;;5092478;28;20021;-48
2021/03/01 01:46:06;;;;;;;10.25;6.93;;;4.30;99.90;;;;;;5092376;28;20052;-45
2021/03/01 01:48:32;;;;;;;11.43;7.65;;;4.30;99.90;;;;;;5092790;28;20024;-46
2021/03/01 01:50:57;;;;;;;11.10;7.35;;;4.30;99.90;;;;;;5092481;28;20024;-48
2021/03/01 01:53:23;;;;;;;14.40;7.97;;;4.30;99.90;;;;;;5092422;28;20016;-46
2021/03/01 01:55:50;;;;;;;11.82;7.78;;;4.20;99.90;;;;;;5092350;28;20036;-44
2021/03/01 01:58:15;;;;;;;12.07;6.70;;;4.20;99.90;;;;;;5074389;28;20040;-44
2021/03/01 02:00:47;;;;;;;11.77;7.13;;;4.20;99.90;;;;;;5092433;28;20108;-46
2021/03/01 02:03:45;;;;;;;11.95;7.32;;;4.10;99.90;;;;;;5092429;28;20024;-46
2021/03/01 02:06:17;;;;;;;9.93;6.60;;;4.10;99.90;;;;;;5091937;28;20039;-44
2021/03/01 02:09:07;;;;;;;14.32;7.65;;;3.90;99.90;;;;;;5092507;28;20028;-44
2021/03/01 02:11:52;;;;;;;11.95;6.88;;;4.00;99.90;;;;;;5092192;28;20047;-46
2021/03/01 02:14:26;;;;;;;12.88;7.00;;;4.00;99.90;;;;;;5091956;28;20071;-46
2021/03/01 02:16:52;;;;;;;12.38;8.10;;;3.90;99.90;;;;;;5091838;28;20139;-46
2021/03/01 02:19:20;;;;;;;16.02;7.72;;;3.80;99.90;;;;;;5092186;28;20549;-45
2021/03/01 02:21:46;;;;;;;9.02;6.70;;;3.80;99.90;;;;;;5092054;28;20465;-47
2021/03/01 02:24:24;;;;;;;9.20;6.57;;;3.80;99.90;;;;;;5091502;28;20111;-45
2021/03/01 02:26:54;;;;;;;10.98;6.18;;;3.80;99.90;;;;;;5091972;28;20413;-47
2021/03/01 02:29:23;;;;;;;9.68;6.60;;;3.70;99.90;;;;;;5091711;28;20032;-44
2021/03/01 02:31:50;;;;;;;9.65;6.78;;;3.70;99.90;;;;;;5073699;28;20016;-47
2021/03/01 02:34:18;;;;;;;11.10;7.82;;;3.60;99.90;;;;;;5091384;28;20585;-44
2021/03/01 02:36:54;;;;;;;14.20;7.45;;;3.60;99.90;;;;;;5091796;28;20035;-44
2021/03/01 02:39:23;;;;;;;14.85;7.28;;;3.60;99.90;;;;;;5091461;28;20395;-44
2021/03/01 02:41:51;;;;;;;14.27;7.47;;;3.60;99.90;;;;;;5091635;28;20473;-46
2021/03/01 02:44:18;;;;;;;9.85;6.22;;;3.60;99.90;;;;;;5091101;28;20040;-47
2021/03/01 02:46:46;;;;;;;8.85;5.78;;;3.50;99.90;;;;;;5091271;28;20059;-45
2021/03/01 02:49:12;;;;;;;11.73;6.32;;;3.60;99.90;;;;;;5091337;28;20032;-44
2021/03/01 02:51:41;;;;;;;13.55;7.82;;;3.60;99.90;;;;;;5091497;28;20638;-44
2021/03/01 02:54:07;;;;;;;10.35;6.30;;;3.50;99.90;;;;;;5091049;28;20077;-47
2021/03/01 02:56:33;;;;;;;10.00;5.97;;;3.40;99.90;;;;;;5091197;28;20036;-47
2021/03/01 02:59:00;;;;;;;9.45;6.03;;;3.50;99.90;;;;;;5091332;28;20028;-45
2021/03/01 03:01:26;;;;;;;9.70;6.57;;;3.40;99.90;;;;;;5091033;28;20028;-45
2021/03/01 03:03:53;;;;;;;11.93;6.50;;;3.40;99.90;;;;;;5091038;28;20055;-44
2021/03/01 03:06:22;;;;;;;12.88;6.75;;;3.30;99.90;;;;;;5090732;28;20028;-47
2021/03/01 03:08:50;;;;;;;8.10;6.07;;;3.30;99.90;;;;;;5091211;28;20020;-46
2021/03/01 03:11:22;;;;;;;12.00;6.50;;;3.30;99.90;;;;;;5090765;28;20038;-51
2021/03/01 03:13:49;;;;;;;15.15;7.40;;;3.30;99.90;;;;;;5090782;28;20374;-44
2021/03/01 03:16:16;;;;;;;10.05;6.32;;;3.30;99.90;;;;;;5091220;28;20062;-45
2021/03/01 03:18:43;;;;;;;11.65;6.80;;;3.30;99.90;;;;;;5091027;28;20111;-44
2021/03/01 03:21:09;;;;;;;10.02;6.68;;;3.30;99.90;;;;;;5090548;28;20550;-46
2021/03/01 03:23:34;;;;;;;9.65;6.20;;;3.40;99.90;;;;;;5090343;28;20028;-44
2021/03/01 03:26:00;;;;;;;14.48;6.78;;;3.40;99.90;;;;;;5072639;28;20027;-46
2021/03/01 03:28:26;;;;;;;14.57;7.38;;;3.40;99.90;;;;;;5090596;28;20210;-48
2021/03/01 03:30:51;;;;;;;12.50;7.50;;;3.40;99.90;;;;;;5090306;28;20096;-47
2021/03/01 03:33:18;;;;;;;13.00;7.40;;;3.40;99.90;;;;;;5090096;28;20024;-45
2021/03/01 03:35:44;;;;;;;15.00;7.45;;;3.40;99.90;;;;;;5090864;28;20035;-44
2021/03/01 03:38:24;;;;;;;14.77;8.45;;;3.30;99.90;;;;;;5090382;28;20020;-46
2021/03/01 03:40:54;;;;;;;19.30;8.15;;;3.30;99.90;;;;;;5090714;28;20024;-46
2021/03/01 03:43:21;;;;;;;13.82;8.63;;;3.30;99.90;;;;;;5090209;28;20082;-45
2021/03/01 03:45:51;;;;;;;11.43;7.13;;;3.30;99.90;;;;;;5090439;28;20543;-45
2021/03/01 03:48:21;;;;;;;17.58;8.23;;;3.30;99.90;;;;;;5090214;28;20020;-48
2021/03/01 03:50:51;;;;;;;18.10;9.20;;;3.30;99.90;;;;;;5090308;28;20497;-47
2021/03/01 03:53:17;;;;;;;16.42;9.40;;;3.20;99.90;;;;;;5090328;28;20024;-47
2021/03/01 03:55:47;;;;;;;14.80;9.60;;;3.20;99.90;;;;;;5090278;28;20028;-48
2021/03/01 03:58:18;;;;;;;14.68;7.88;;;3.20;99.90;;;;;;5090281;28;20098;-49
2021/03/01 04:00:45;;;;;;;20.00;9.18;;;3.30;99.90;;;;;;5071913;28;20020;-43
2021/03/01 04:03:12;;;;;;;15.32;8.95;;;3.20;99.90;;;;;;5090189;28;20020;-45
2021/03/01 04:05:44;;;;;;;16.15;9.80;;;3.20;99.90;;;;;;5089987;28;20633;-45
2021/03/01 04:08:13;;;;;;;17.40;9.30;;;3.20;99.90;;;;;;5090355;28;20441;-46
2021/03/01 04:10:43;;;;;;;24.08;11.32;;;3.20;99.90;;;;;;5071918;28;20020;-49
2021/03/01 04:13:12;;;;;;;16.73;9.77;;;3.20;99.90;;;;;;5090247;28;20393;-43
2021/03/01 04:15:41;;;;;;;13.15;9.73;;;3.20;99.90;;;;;;5071825;28;21748;-45
2021/03/01 04:18:09;;;;;;;21.45;9.27;;;3.10;99.90;;;;;;5090226;28;20027;-47
2021/03/01 04:20:35;;;;;;;20.83;9.57;;;3.10;99.90;;;;;;5090064;28;20028;-45
2021/03/01 04:23:02;;;;;;;20.15;10.35;;;3.10;99.90;;;;;;5090213;28;20028;-47
2021/03/01 04:25:29;;;;;;;18.98;9.95;;;3.00;99.90;;;;;;5089986;28;20028;-48
2021/03/01 04:27:54;;;;;;;20.17;11.15;;;3.00;99.90;;;;;;5090469;28;20076;-47
2021/03/01 04:30:21;;;;;;;24.67;11.00;;;2.90;99.90;;;;;;5090134;28;20498;-47
2021/03/01 04:32:48;;;;;;;27.98;10.38;;;3.00;99.90;;;;;;5090101;28;20112;-47
2021/03/01 04:35:19;;;;;;;24.15;11.55;;;3.00;99.90;;;;;;5090050;28;20060;-46
2021/03/01 04:37:45;;;;;;;23.77;12.40;;;2.90;99.90;;;;;;5090140;28;20119;-48
2021/03/01 04:40:12;;;;;;;23.85;10.80;;;2.90;99.90;;;;;;5089915;28;20036;-46
2021/03/01 04:42:42;;;;;;;20.83;10.00;;;2.90;99.90;;;;;;5088301;28;20032;-44
2021/03/01 04:45:08;;;;;;;20.13;10.90;;;2.80;99.90;;;;;;5055934;28;20158;-48
2021/03/01 04:47:34;;;;;;;22.15;12.00;;;2.80;99.90;;;;;;5077098;28;20024;-45
2021/03/01 04:50:00;;;;;;;20.20;11.15;;;2.80;99.90;;;;;;5094151;28;20027;-46
2021/03/01 04:52:28;;;;;;;22.95;11.80;;;2.80;99.90;;;;;;5093529;28;20016;-44
2021/03/01 04:54:54;;;;;;;25.55;11.63;;;2.80;99.90;;;;;;5094269;28;20024;-48
2021/03/01 04:57:20;;;;;;;27.98;12.25;;;2.80;99.90;;;;;;5094620;28;20119;-46
2021/03/01 04:59:47;;;;;;;31.63;11.25;;;2.70;99.90;;;;;;5080573;28;20028;-44
2021/03/01 05:02:14;;;;;;;21.42;11.23;;;2.70;99.90;;;;;;5081745;28;20400;-45
2021/03/01 05:04:40;;;;;;;20.02;11.05;;;2.70;99.90;;;;;;5099081;28;20113;-44
2021/03/01 05:07:07;;;;;;;31.45;13.35;;;2.70;99.90;;;;;;5097653;28;20378;-46
2021/03/01 05:09:37;;;;;;;28.77;12.90;;;2.70;99.90;;;;;;5095543;28;20481;-44
2021/03/01 05:12:02;;;;;;;27.95;12.02;;;2.60;99.90;;;;;;5093433;28;20397;-46
2021/03/01 05:14:28;;;;;;;28.08;13.05;;;2.70;99.90;;;;;;5093579;28;20035;-44
2021/03/01 05:16:53;;;;;;;26.35;14.40;;;2.70;99.90;;;;;;5093605;28;20710;-46
2021/03/01 05:19:19;;;;;;;21.63;12.48;;;2.70;99.90;;;;;;5094234;28;20070;-47
2021/03/01 05:21:44;;;;;;;25.90;14.00;;;2.70;99.90;;;;;;5075371;28;20216;-44
2021/03/01 05:24:10;;;;;;;23.73;13.27;;;2.60;99.90;;;;;;5093357;28;20132;-44
2021/03/01 05:26:36;;;;;;;25.27;13.52;;;2.60;99.90;;;;;;5093586;28;20023;-44
2021/03/01 05:29:03;;;;;;;37.17;13.85;;;2.60;99.90;;;;;;5093547;28;20493;-46
2021/03/01 05:31:28;;;;;;;28.27;13.82;;;2.60;99.90;;;;;;5093037;28;20032;-47
2021/03/01 05:33:54;;;;;;;27.67;13.40;;;2.60;99.90;;;;;;5092960;28;20025;-45
2021/03/01 05:36:20;;;;;;;27.20;14.02;;;2.50;99.90;;;;;;5092794;28;20085;-45
2021/03/01 05:38:45;;;;;;;24.92;14.05;;;2.50;99.90;;;;;;5093002;28;20085;-47
2021/03/01 05:41:12;;;;;;;22.88;12.25;;;2.50;99.90;;;;;;5092798;28;20131;-44
2021/03/01 05:43:38;;;;;;;28.80;13.27;;;2.50;99.90;;;;;;5092923;28;20046;-46
2021/03/01 05:46:04;;;;;;;31.15;15.27;;;2.50;99.90;;;;;;5092508;28;20431;-44
2021/03/01 05:48:29;;;;;;;34.95;15.85;;;2.50;99.90;;;;;;5074671;28;20024;-45
2021/03/01 05:50:57;;;;;;;27.92;15.13;;;2.40;99.90;;;;;;5092405;28;20073;-45
2021/03/01 05:53:37;;;;;;;29.13;15.30;;;2.40;99.90;;;;;;5092253;28;20020;-45
2021/03/01 05:56:03;;;;;;;29.15;15.30;;;2.40;99.90;;;;;;5092664;28;20097;-44
2021/03/01 05:58:30;;;;;;;29.58;15.18;;;2.40;99.90;;;;;;5092495;28;20402;-48
2021/03/01 06:01:01;;;;;;;30.15;14.82;;;2.40;99.90;;;;;;5092253;28;20043;-44
2021/03/01 06:03:32;;;;;;;33.25;16.08;;;2.40;99.90;;;;;;5092427;28;20674;-45
2021/03/01 06:05:58;;;;;;;29.80;15.27;;;2.40;99.90;;;;;;5092029;28;20036;-46
2021/03/01 06:08:25;;;;;;;28.33;16.35;;;2.40;99.90;;;;;;5092192;28;20026;-46
2021/03/01 06:11:11;;;;;;;33.00;17.00;;;2.50;99.90;;;;;;5092069;28;20028;-44
2021/03/01 06:13:38;;;;;;;29.85;17.05;;;2.50;99.90;;;;;;5121555;22;20083;-46
2021/03/01 06:16:05;;;;;;;36.10;17.83;;;2.50;99.90;;;;;;5112718;28;20098;-50
2021/03/01 06:18:31;;;;;;;33.30;16.58;;;2.50;99.90;;;;;;5113009;28;20088;-48
2021/03/01 06:21:16;;;;;;;31.27;15.57;;;2.50;99.90;;;;;;5112473;28;20256;-48
2021/03/01 06:23:44;;;;;;;33.75;17.27;;;2.50;99.90;;;;;;5111738;28;20024;-50
2021/03/01 06:26:22;;;;;;;32.40;16.60;;;2.40;99.90;;;;;;5098836;28;20032;-47
2021/03/01 06:28:50;;;;;;;38.92;18.02;;;2.40;99.90;;;;;;5092210;28;20027;-47
2021/03/01 06:31:42;;;;;;;30.77;17.13;;;2.40;99.90;;;;;;5104218;28;20024;-48
2021/03/01 06:34:30;;;;;;;35.13;18.42;;;2.40;99.90;;;;;;5105480;28;20036;-48
2021/03/01 06:37:10;;;;;;;34.47;16.13;;;2.50;99.90;;;;;;5112123;28;20088;-46
2021/03/01 06:39:41;;;;;;;33.95;18.30;;;2.50;99.90;;;;;;5110020;28;20019;-50
2021/03/01 06:42:23;;;;;;;26.25;15.27;;;2.50;99.90;;;;;;5112138;28;20095;-47
2021/03/01 06:45:00;;;;;;;35.63;16.27;;;2.60;99.90;;;;;;5095946;28;20070;-49
2021/03/01 06:48:05;;;;;;;27.10;16.02;;;2.70;99.90;;;;;;5091342;28;20078;-48
2021/03/01 06:50:46;;;;;;;33.88;16.30;;;2.80;99.90;;;;;;5010059;28;20034;-47
2021/03/01 06:53:11;;;;;;;34.65;17.92;;;2.70;99.90;;;;;;5008138;28;20061;-52
2021/03/01 06:55:57;;;;;;;29.55;18.20;;;2.80;99.90;;;;;;5052567;28;20064;-47
2021/03/01 06:58:27;;;;;;;29.38;16.85;;;2.90;99.90;;;;;;5072063;28;20021;-47
2021/03/01 07:01:03;;;;;;;32.47;17.70;;;3.00;99.90;;;;;;5074323;28;20036;-46
2021/03/01 07:03:28;;;;;;;32.13;17.88;;;3.20;99.90;;;;;;5091137;28;20027;-47
2021/03/01 07:05:56;;;;;;;34.72;16.00;;;3.20;99.90;;;;;;5110800;28;20020;-48
2021/03/01 07:08:49;;;;;;;30.92;15.45;;;3.50;99.90;;;;;;5109714;28;20453;-44
2021/03/01 07:11:33;;;;;;;24.77;16.27;;;4.00;99.90;;;;;;5111442;28;20015;-49
2021/03/01 07:14:08;;;;;;;22.30;13.80;;;4.30;99.90;;;;;;5101749;28;20519;-49
2021/03/01 07:16:54;;;;;;;24.33;14.63;;;4.50;99.90;;;;;;5090804;28;20020;-45
2021/03/01 07:19:20;;;;;;;;;;;4.80;99.90;;;;;;5074122;28;20120;-45
2021/03/01 07:21:52;;;;;;;26.85;15.00;;;4.90;99.90;;;;;;5072317;28;19908;-46
2021/03/01 07:24:26;;;;;;;23.25;14.50;;;4.60;99.90;;;;;;5080944;28;20027;-48
2021/03/01 07:26:54;;;;;;;25.67;13.10;;;4.70;99.90;;;;;;5092884;28;20031;-46
2021/03/01 07:29:21;;;;;;;26.35;13.55;;;5.40;99.90;;;;;;5092185;28;20413;-46
2021/03/01 07:31:55;;;;;;;21.55;12.65;;;5.80;99.90;;;;;;5090620;28;20055;-49
2021/03/01 07:34:23;;;;;;;25.08;13.43;;;5.80;99.90;;;;;;5072511;28;20050;-45
2021/03/01 07:36:49;;;;;;;24.45;13.98;;;5.70;99.90;;;;;;5090431;28;20435;-46
2021/03/01 07:39:15;;;;;;;28.27;13.68;;;6.00;99.90;;;;;;5106622;28;20554;-47
2021/03/01 07:41:40;;;;;;;22.35;13.63;;;5.70;99.90;;;;;;5110749;28;20052;-45
2021/03/01 07:44:08;;;;;;;25.38;13.02;;;5.50;99.90;;;;;;5090121;28;20396;-47
2021/03/01 07:46:56;;;;;;;27.92;14.63;;;4.90;99.90;;;;;;5092591;28;20043;-52
2021/03/01 07:49:42;;;;;;;24.23;15.15;;;4.50;99.90;;;;;;5068153;28;20032;-45
2021/03/01 07:52:28;;;;;;;29.20;14.68;;;3.80;99.90;;;;;;5091390;28;20024;-50
2021/03/01 07:54:53;;;;;;;25.13;14.10;;;3.60;99.90;;;;;;5089956;28;20104;-48
2021/03/01 07:57:20;;;;;;;31.75;14.80;;;3.60;99.90;;;;;;5107381;28;20028;-47
2021/03/01 07:59:46;;;;;;;26.33;14.65;;;3.40;99.90;;;;;;5110753;28;20111;-46
2021/03/01 08:02:13;;;;;;;30.67;15.63;;;3.40;99.90;;;;;;5098403;28;20121;-46
2021/03/01 08:04:39;;;;;;;29.77;16.00;;;3.40;99.90;;;;;;5109906;28;20023;-48
2021/03/01 08:07:05;;;;;;;25.55;15.18;;;3.40;99.90;;;;;;5078666;28;20052;-47
2021/03/01 08:09:53;;;;;;;25.13;14.48;;;3.50;99.90;;;;;;5090424;28;20051;-46
2021/03/01 08:12:27;;;;;;;33.85;15.23;;;3.40;99.90;;;;;;5092408;28;20024;-48
2021/03/01 08:14:53;;;;;;;28.27;14.07;;;3.40;99.90;;;;;;5089794;28;20291;-46
2021/03/01 08:17:31;;;;;;;29.17;15.60;;;3.40;99.90;;;;;;5107916;28;20504;-50
2021/03/01 08:20:14;;;;;;;19.50;13.05;;;3.50;99.90;;;;;;5114891;28;20055;-46
2021/03/01 08:23:09;;;;;;;23.85;13.52;;;3.50;99.90;;;;;;5112538;28;20465;-44
2021/03/01 08:25:51;;;;;;;21.20;13.20;;;3.50;99.90;;;;;;5103913;28;20064;-49
2021/03/01 08:28:16;;;;;;;21.50;13.45;;;3.50;99.90;;;;;;5094727;28;20024;-46
2021/03/01 08:30:46;;;;;;;25.65;14.57;;;3.50;99.90;;;;;;5077532;28;20393;-48
2021/03/01 08:33:12;;;;;;;25.45;14.55;;;3.60;99.90;;;;;;5093939;28;20032;-49
2021/03/01 08:36:00;;;;;;;25.15;14.20;;;3.60;99.90;;;;;;5103426;28;20035;-46
2021/03/01 08:38:48;;;;;;;23.33;13.52;;;3.70;99.90;;;;;;5104802;28;20044;-46
2021/03/01 08:41:17;;;;;;;25.10;13.23;;;3.80;99.90;;;;;;5085061;28;20020;-48
2021/03/01 08:43:48;;;;;;;23.30;13.15;;;3.90;99.90;;;;;;5081915;28;20492;-48
2021/03/01 08:46:16;;;;;;;23.60;12.63;;;4.00;99.90;;;;;;5108704;28;20061;-48
2021/03/01 08:48:45;;;;;;;23.23;12.95;;;4.20;99.90;;;;;;5100816;28;20039;-46
2021/03/01 08:51:11;;;;;;;19.90;13.60;;;4.00;99.90;;;;;;5094023;28;20020;-46
2021/03/01 08:53:37;;;;;;;20.55;12.48;;;4.00;99.90;;;;;;5094515;28;20587;-46
2021/03/01 08:56:03;;;;;;;23.52;12.40;;;4.10;99.90;;;;;;5094007;28;20024;-50
2021/03/01 08:58:33;;;;;;;21.25;13.32;;;4.20;99.90;;;;;;5094882;28;20040;-46
2021/03/01 09:01:03;;;;;;;21.25;12.60;;;4.40;99.90;;;;;;5075461;28;20023;-49
2021/03/01 09:03:34;;;;;;;17.13;11.57;;;4.50;99.90;;;;;;5096956;28;20088;-50
2021/03/01 09:06:11;;;;;;;18.95;12.52;;;4.50;99.90;;;;;;5082037;28;20020;-47
2021/03/01 09:08:44;;;;;;;19.83;11.75;;;4.50;99.90;;;;;;5093261;28;20481;-41
2021/03/01 09:11:19;;;;;;;19.77;12.23;;;4.50;99.90;;;;;;5093470;28;20099;-44
2021/03/01 09:13:47;;;;;;;15.30;11.57;;;4.60;99.90;;;;;;5092556;28;20027;-46
2021/03/01 09:16:15;;;;;;;18.52;12.80;;;4.70;99.90;;;;;;5094348;28;20035;-50
2021/03/01 09:18:42;;;;;;;14.88;11.07;;;4.80;99.90;;;;;;5093339;28;20508;-53
2021/03/01 09:21:10;;;;;;;18.08;13.35;;;4.90;99.90;;;;;;5093247;28;20027;-46
2021/03/01 09:23:35;;;;;;;19.30;11.90;;;5.00;99.90;;;;;;5091549;28;20045;-55
2021/03/01 09:26:02;;;;;;;18.65;12.93;;;5.10;99.90;;;;;;5093130;28;20541;-53
2021/03/01 09:28:34;;;;;;;16.05;11.25;;;5.40;99.90;;;;;;5092329;28;20024;-46
2021/03/01 09:31:04;;;;;;;19.40;12.07;;;5.40;99.90;;;;;;5075426;28;20031;-48
2021/03/01 09:33:29;;;;;;;15.80;11.73;;;5.80;99.90;;;;;;5092668;28;20228;-50
2021/03/01 09:35:55;;;;;;;14.65;9.70;;;6.90;99.50;;;;;;5093264;28;20095;-50
2021/03/01 09:38:21;;;;;;;14.80;9.95;;;7.80;97.20;;;;;;5094284;28;20473;-53
2021/03/01 09:40:47;;;;;;;12.15;9.48;;;8.80;96.00;;;;;;5094569;28;20107;-47
2021/03/01 09:43:13;;;;;;;13.75;9.77;;;10.00;94.00;;;;;;5092807;28;20039;-54
2021/03/01 09:45:38;;;;;;;16.55;8.13;;;11.00;91.50;;;;;;5092925;28;20028;-58
2021/03/01 09:48:05;;;;;;;12.88;8.48;;;11.90;89.40;;;;;;5074731;28;20077;-47
2021/03/01 09:50:32;;;;;;;12.40;8.38;;;12.50;81.50;;;;;;5102515;28;20084;-49
2021/03/01 09:52:58;;;;;;;13.95;8.80;;;12.60;81.30;;;;;;5097858;28;20362;-63
2021/03/01 09:55:24;;;;;;;16.60;10.20;;;11.90;83.70;;;;;;5112854;28;20107;-51
2021/03/01 09:57:50;;;;;;;15.88;9.77;;;11.80;85.80;;;;;;5106006;28;20059;-47
2021/03/01 10:00:25;;;;;;;12.68;9.70;;;11.60;87.30;;;;;;5092475;28;20092;-50
2021/03/01 10:02:55;;;;;;;14.07;9.33;;;12.00;86.80;;;;;;5091638;28;20031;-49
2021/03/01 10:05:21;;;;;;;13.73;10.18;;;12.10;85.20;;;;;;5096470;28;20321;-48
2021/03/01 10:08:04;;;;;;;15.25;10.82;;;12.00;82.50;;;;;;5092428;28;20055;-47
2021/03/01 10:10:38;;;;;;;18.35;10.07;;;11.80;84.10;;;;;;5097085;28;20453;-54
2021/03/01 10:13:05;;;;;;;15.20;10.88;;;11.30;85.80;;;;;;5111690;28;20057;-49
2021/03/01 10:15:42;;;;;;;14.05;10.18;;;11.20;88.40;;;;;;5110773;28;20027;-47
2021/03/01 10:18:10;;;;;;;13.70;9.60;;;10.90;88.10;;;;;;5092290;28;20108;-48
2021/03/01 10:20:58;;;;;;;16.05;10.82;;;10.50;89.10;;;;;;5096151;28;20036;-47
2021/03/01 10:23:41;;;;;;;17.58;10.82;;;10.30;89.20;;;;;;5071051;28;20028;-51
2021/03/01 10:26:21;;;;;;;13.82;10.55;;;10.10;90.20;;;;;;5091585;28;20038;-46
2021/03/01 10:28:55;;;;;;;15.48;11.15;;;10.10;91.00;;;;;;5092294;28;20106;-48
2021/03/01 10:31:25;;;;;;;13.70;10.05;;;9.90;90.70;;;;;;5111552;28;20031;-47
2021/03/01 10:34:00;;;;;;;16.88;9.93;;;9.90;90.70;;;;;;5111705;28;20178;-53
2021/03/01 10:36:28;;;;;;;18.83;10.75;;;10.10;90.50;;;;;;5110469;28;20114;-51
2021/03/01 10:38:59;;;;;;;19.05;11.02;;;10.00;90.90;;;;;;5093490;28;20025;-53
2021/03/01 10:41:29;;;;;;;18.27;11.20;;;9.80;91.10;;;;;;5093526;28;20031;-48
2021/03/01 10:44:05;;;;;;;13.98;10.88;;;10.20;90.40;;;;;;5089937;28;20425;-50
2021/03/01 10:46:33;;;;;;;16.38;10.07;;;10.30;90.40;;;;;;5090465;28;20111;-51
2021/03/01 10:49:00;;;;;;;16.17;11.43;;;10.10;90.50;;;;;;5089841;28;20431;-53
2021/03/01 10:51:26;;;;;;;17.27;11.07;;;10.10;90.50;;;;;;5070899;28;20500;-51
2021/03/01 10:53:51;;;;;;;16.63;10.98;;;9.90;90.70;;;;;;5086185;28;20028;-52
2021/03/01 10:56:17;;;;;;;17.15;10.10;;;10.20;91.10;;;;;;5110608;28;20032;-52
2021/03/01 10:58:42;;;;;;;14.77;10.05;;;10.40;90.80;;;;;;5092477;28;20035;-51
2021/03/01 11:01:08;;;;;;;13.23;10.25;;;10.00;91.00;;;;;;5090079;28;20028;-48
2021/03/01 11:03:34;;;;;;;18.40;10.25;;;9.90;91.80;;;;;;5102405;28;20500;-49
2021/03/01 11:05:59;;;;;;;18.27;11.65;;;9.70;92.00;;;;;;5092798;28;20023;-50
2021/03/01 11:08:25;;;;;;;15.77;10.38;;;9.60;91.90;;;;;;5090960;28;20513;-53
2021/03/01 11:10:51;;;;;;;13.52;10.38;;;9.70;92.10;;;;;;5110899;28;20016;-50
2021/03/01 11:13:17;;;;;;;15.63;9.95;;;9.80;92.10;;;;;;5108716;28;20106;-52
2021/03/01 11:15:42;;;;;;;12.45;9.80;;;10.00;92.10;;;;;;5110257;28;20457;-48
2021/03/01 11:18:08;;;;;;;15.57;9.70;;;10.00;91.30;;;;;;5093382;28;20038;-47
2021/03/01 11:20:33;;;;;;;15.00;10.93;;;9.90;91.70;;;;;;5090317;28;20034;-52
2021/03/01 11:22:59;;;;;;;13.15;9.48;;;9.90;91.70;;;;;;5105107;28;20044;-56
2021/03/01 11:25:25;;;;;;;14.65;10.68;;;10.00;92.10;;;;;;5092247;28;20069;-48
2021/03/01 11:27:50;;;;;;;18.13;10.32;;;10.00;91.50;;;;;;5096057;28;20021;-49
2021/03/01 11:30:16;;;;;;;12.63;9.18;;;10.10;91.80;;;;;;5089381;28;20473;-51
2021/03/01 11:32:42;;;;;;;11.70;8.48;;;10.20;91.30;;;;;;5086288;28;20507;-52
2021/03/01 11:35:08;;;;;;;15.38;10.38;;;10.10;90.80;;;;;;5077080;28;20040;-51
2021/03/01 11:37:33;;;;;;;15.02;9.77;;;10.20;91.20;;;;;;5094046;28;20561;-49
2021/03/01 11:39:59;;;;;;;14.45;10.32;;;10.10;91.20;;;;;;5094817;28;20062;-46
2021/03/01 11:42:24;;;;;;;16.40;10.23;;;10.10;91.40;;;;;;5078535;28;20054;-49
2021/03/01 11:44:50;;;;;;;13.30;9.52;;;10.10;91.10;;;;;;5098551;28;20034;-49
2021/03/01 11:47:15;;;;;;;14.75;10.80;;;10.20;91.70;;;;;;5101611;28;20032;-53
2021/03/01 11:49:41;;;;;;;13.70;9.77;;;10.30;91.30;;;;;;5110910;28;20055;-48
2021/03/01 11:52:07;;;;;;;13.63;9.73;;;10.20;91.30;;;;;;5069713;28;20020;-49
2021/03/01 11:54:32;;;;;;;11.90;8.73;;;10.10;91.30;;;;;;5051735;28;20075;-48
2021/03/01 11:56:58;;;;;;;14.75;9.80;;;10.20;91.80;;;;;;5107085;28;20028;-56
2021/03/01 11:59:23;;;;;;;12.20;8.77;;;10.30;91.50;;;;;;5110816;28;20023;-48
2021/03/01 12:01:49;;;;;;;12.98;8.98;;;10.30;90.70;;;;;;5108354;28;20034;-50
2021/03/01 12:04:14;;;;;;;16.35;9.90;;;10.30;90.80;;;;;;5110450;28;20023;-51
2021/03/01 12:06:40;;;;;;;13.60;10.07;;;10.30;90.90;;;;;;5108813;28;20027;-51
2021/03/01 12:09:05;;;;;;;13.23;9.18;;;10.40;91.20;;;;;;5107164;28;20028;-49
2021/03/01 12:11:31;;;;;;;13.32;9.55;;;10.40;90.60;;;;;;5090406;28;20036;-51
2021/03/01 12:13:56;;;;;;;12.95;9.07;;;10.50;90.80;;;;;;5118293;22;20063;-45
2021/03/01 12:16:22;;;;;;;12.27;9.00;;;10.50;90.80;;;;;;5105930;28;20463;-58
2021/03/01 12:18:47;;;;;;;19.30;8.45;;;10.50;91.00;;;;;;5092309;28;20038;-45
2021/03/01 12:21:13;;;;;;;12.43;9.57;;;10.60;90.80;;;;;;5110166;28;20510;-47
2021/03/01 12:23:39;;;;;;;16.48;9.45;;;10.70;90.50;;;;;;5096086;28;20059;-47
2021/03/01 12:26:04;;;;;;;18.05;9.38;;;10.70;91.10;;;;;;5089010;28;20032;-49
2021/03/01 12:28:29;;;;;;;11.70;8.55;;;10.80;90.20;;;;;;5087114;28;20058;-48
2021/03/01 12:30:55;;;;;;;10.63;8.65;;;10.80;90.10;;;;;;5089755;28;20024;-47
2021/03/01 12:33:20;;;;;;;11.55;8.73;;;10.80;90.00;;;;;;5089252;28;20076;-49
2021/03/01 12:35:46;;;;;;;13.80;8.73;;;10.80;89.40;;;;;;5089932;28;20112;-47
2021/03/01 12:38:11;;;;;;;12.65;9.65;;;10.70;89.20;;;;;;5090168;28;20687;-45
2021/03/01 12:40:37;;;;;;;17.58;8.93;;;10.70;89.80;;;;;;5090294;28;20115;-46
2021/03/01 12:43:03;;;;;;;14.18;8.30;;;10.80;90.20;;;;;;5089486;28;20449;-51
2021/03/01 12:45:30;;;;;;;11.80;8.48;;;11.00;89.90;;;;;;5089836;28;20047;-48
2021/03/01 12:47:55;;;;;;;14.93;9.95;;;11.00;89.60;;;;;;5090209;28;20027;-44
2021/03/01 12:50:21;;;;;;;13.07;9.05;;;11.20;88.10;;;;;;5089937;28;20028;-47